sensor_id;sensor_type;location;lat;lon;timestamp;temperature;humidity
10042;DHT22;5061;49.068;12.058;2023-03-31T00:01:46;7.90;99.90
10042;DHT22;5061;49.068;12.058;2023-03-31T00:05:08;7.90;99.90
10042;DHT22;5061;49.068;12.058;2023-03-31T00:08:30;7.80;99.90
10042;DHT22;5061;49.068;12.058;2023-03-31T00:11:54;7.80;99.90
10042;DHT22;5061;49.068;12.058;2023-03-31T00:15:15;7.80;99.90
10042;DHT22;5061;49.068;12.058;2023-03-31T00:18:36;7.80;99.90
10042;DHT22;5061;49.068;12.058;2023-03-31T00:21:57;7.70;99.90
10042;DHT22;5061;49.068;12.058;2023-03-31T00:25:21;7.70;99.90
10042;DHT22;5061;49.068;12.058;2023-03-31T00:28:41;7.70;99.90
10042;DHT22;5061;49.068;12.058;2023-03-31T00:32:02;7.60;99.90
10042;DHT22;5061;49.068;12.058;2023-03-31T00:35:23;7.60;99.90
10042;DHT22;5061;49.068;12.058;2023-03-31T00:38:43;7.60;99.90
10042;DHT22;5061;49.068;12.058;2023-03-31T00:42:05;7.60;99.90
10042;DHT22;5061;49.068;12.058;2023-03-31T00:45:29;7.60;99.90
10042;DHT22;5061;49.068;12.058;2023-03-31T00:48:54;7.50;99.90
10042;DHT22;5061;49.068;12.058;2023-03-31T00:52:27;7.50;99.90
10042;DHT22;5061;49.068;12.058;2023-03-31T00:55:53;7.50;99.90
10042;DHT22;5061;49.068;12.058;2023-03-31T00:59:15;7.40;99.90
10042;DHT22;5061;49.068;12.058;2023-03-31T01:02:35;7.40;99.90
10042;DHT22;5061;49.068;12.058;2023-03-31T01:06:03;7.40;99.90
10042;DHT22;5061;49.068;12.058;2023-03-31T01:09:26;7.30;99.90
10042;DHT22;5061;49.068;12.058;2023-03-31T01:12:52;7.30;99.90
10042;DHT22;5061;49.068;12.058;2023-03-31T01:16:13;7.30;99.90
10042;DHT22;5061;49.068;12.058;2023-03-31T01:52:21;7.00;99.90
10042;DHT22;5061;49.068;12.058;2023-03-31T01:56:15;7.00;99.90
10042;DHT22;5061;49.068;12.058;2023-03-31T01:59:43;7.00;99.90
10042;DHT22;5061;49.068;12.058;2023-03-31T02:03:08;6.90;99.90
10042;DHT22;5061;49.068;12.058;2023-03-31T02:06:37;6.90;99.90
10042;DHT22;5061;49.068;12.058;2023-03-31T02:10:01;6.90;99.90
10042;DHT22;5061;49.068;12.058;2023-03-31T02:13:25;6.80;99.90
10042;DHT22;5061;49.068;12.058;2023-03-31T02:16:51;6.80;99.90
10042;DHT22;5061;49.068;12.058;2023-03-31T02:20:14;6.80;99.90
10042;DHT22;5061;49.068;12.058;2023-03-31T02:23:37;6.80;99.90
10042;DHT22;5061;49.068;12.058;2023-03-31T02:27:31;6.80;99.90
10042;DHT22;5061;49.068;12.058;2023-03-31T02:34:32;6.70;99.90
10042;DHT22;5061;49.068;12.058;2023-03-31T02:37:52;6.70;99.90
10042;DHT22;5061;49.068;12.058;2023-03-31T02:41:13;6.70;99.90
10042;DHT22;5061;49.068;12.058;2023-03-31T02:44:35;6.70;99.90
10042;DHT22;5061;49.068;12.058;2023-03-31T02:47:56;6.70;99.90
10042;DHT22;5061;49.068;12.058;2023-03-31T02:55:14;6.70;99.90
10042;DHT22;5061;49.068;12.058;2023-03-31T03:02:34;6.70;99.90
10042;DHT22;5061;49.068;12.058;2023-03-31T03:17:53;6.70;99.90
10042;DHT22;5061;49.068;12.058;2023-03-31T03:21:15;6.70;99.90
10042;DHT22;5061;49.068;12.058;2023-03-31T03:24:37;6.70;99.90
10042;DHT22;5061;49.068;12.058;2023-03-31T03:27:59;6.70;99.90
10042;DHT22;5061;49.068;12.058;2023-03-31T03:31:22;6.70;99.90
10042;DHT22;5061;49.068;12.058;2023-03-31T03:34:43;6.80;99.90
10042;DHT22;5061;49.068;12.058;2023-03-31T03:38:04;6.80;99.90
10042;DHT22;5061;49.068;12.058;2023-03-31T03:41:26;6.80;99.90
10042;DHT22;5061;49.068;12.058;2023-03-31T03:44:47;6.80;99.90
10042;DHT22;5061;49.068;12.058;2023-03-31T03:48:08;6.80;99.90
10042;DHT22;5061;49.068;12.058;2023-03-31T03:51:29;6.80;99.90
10042;DHT22;5061;49.068;12.058;2023-03-31T03:54:50;6.80;99.90
10042;DHT22;5061;49.068;12.058;2023-03-31T03:58:11;6.80;99.90
10042;DHT22;5061;49.068;12.058;2023-03-31T04:01:32;6.80;99.90
10042;DHT22;5061;49.068;12.058;2023-03-31T04:04:54;6.70;99.90
10042;DHT22;5061;49.068;12.058;2023-03-31T04:08:16;6.80;99.90
10042;DHT22;5061;49.068;12.058;2023-03-31T04:11:38;6.80;99.90
10042;DHT22;5061;49.068;12.058;2023-03-31T04:14:59;6.80;99.90
10042;DHT22;5061;49.068;12.058;2023-03-31T04:18:20;6.80;99.90
10042;DHT22;5061;49.068;12.058;2023-03-31T04:21:45;6.80;99.90
10042;DHT22;5061;49.068;12.058;2023-03-31T04:25:11;6.80;99.90
10042;DHT22;5061;49.068;12.058;2023-03-31T04:28:42;6.80;99.90
10042;DHT22;5061;49.068;12.058;2023-03-31T04:32:09;6.80;99.90
10042;DHT22;5061;49.068;12.058;2023-03-31T04:35:34;6.80;99.90
10042;DHT22;5061;49.068;12.058;2023-03-31T04:39:18;6.80;99.90
10042;DHT22;5061;49.068;12.058;2023-03-31T04:42:50;6.80;99.90
10042;DHT22;5061;49.068;12.058;2023-03-31T04:46:16;6.80;99.90
10042;DHT22;5061;49.068;12.058;2023-03-31T04:49:37;6.80;99.90
10042;DHT22;5061;49.068;12.058;2023-03-31T04:53:00;6.80;99.90
10042;DHT22;5061;49.068;12.058;2023-03-31T04:56:21;6.80;99.90
10042;DHT22;5061;49.068;12.058;2023-03-31T04:59:42;6.80;99.90
10042;DHT22;5061;49.068;12.058;2023-03-31T05:03:03;6.90;99.90
10042;DHT22;5061;49.068;12.058;2023-03-31T05:06:25;6.80;99.90
10042;DHT22;5061;49.068;12.058;2023-03-31T05:09:46;6.80;99.90
10042;DHT22;5061;49.068;12.058;2023-03-31T05:13:10;6.80;99.90
10042;DHT22;5061;49.068;12.058;2023-03-31T05:16:31;6.90;99.90
10042;DHT22;5061;49.068;12.058;2023-03-31T05:19:52;6.90;99.90
10042;DHT22;5061;49.068;12.058;2023-03-31T05:23:17;6.90;99.90
10042;DHT22;5061;49.068;12.058;2023-03-31T05:26:38;6.90;99.90
10042;DHT22;5061;49.068;12.058;2023-03-31T05:30:02;6.90;99.90
10042;DHT22;5061;49.068;12.058;2023-03-31T05:33:24;6.90;99.90
10042;DHT22;5061;49.068;12.058;2023-03-31T05:36:45;6.90;99.90
10042;DHT22;5061;49.068;12.058;2023-03-31T05:40:13;7.00;99.90
10042;DHT22;5061;49.068;12.058;2023-03-31T05:43:41;7.00;99.90
10042;DHT22;5061;49.068;12.058;2023-03-31T05:47:03;7.00;99.90
10042;DHT22;5061;49.068;12.058;2023-03-31T05:50:24;7.00;99.90
10042;DHT22;5061;49.068;12.058;2023-03-31T05:53:45;7.00;99.90
10042;DHT22;5061;49.068;12.058;2023-03-31T05:57:06;7.00;99.90
10042;DHT22;5061;49.068;12.058;2023-03-31T06:00:29;7.00;99.90
10042;DHT22;5061;49.068;12.058;2023-03-31T06:03:55;7.00;99.90
10042;DHT22;5061;49.068;12.058;2023-03-31T06:07:17;7.00;99.90
10042;DHT22;5061;49.068;12.058;2023-03-31T06:10:41;7.00;99.90
10042;DHT22;5061;49.068;12.058;2023-03-31T06:14:04;7.00;99.90
10042;DHT22;5061;49.068;12.058;2023-03-31T06:17:26;7.00;99.90
10042;DHT22;5061;49.068;12.058;2023-03-31T06:20:50;7.00;99.90
10042;DHT22;5061;49.068;12.058;2023-03-31T06:24:14;7.00;99.90
10042;DHT22;5061;49.068;12.058;2023-03-31T06:27:35;7.00;99.90
10042;DHT22;5061;49.068;12.058;2023-03-31T06:31:02;7.00;99.90
10042;DHT22;5061;49.068;12.058;2023-03-31T06:34:23;7.00;99.90
10042;DHT22;5061;49.068;12.058;2023-03-31T06:37:44;7.00;99.90
10042;DHT22;5061;49.068;12.058;2023-03-31T06:41:11;7.10;99.90
10042;DHT22;5061;49.068;12.058;2023-03-31T06:44:32;7.10;99.90
10042;DHT22;5061;49.068;12.058;2023-03-31T06:47:54;7.20;99.90
10042;DHT22;5061;49.068;12.058;2023-03-31T06:51:15;7.20;99.90
10042;DHT22;5061;49.068;12.058;2023-03-31T06:54:39;7.20;99.90
10042;DHT22;5061;49.068;12.058;2023-03-31T06:58:01;7.20;99.90
10042;DHT22;5061;49.068;12.058;2023-03-31T07:01:22;7.20;99.90
10042;DHT22;5061;49.068;12.058;2023-03-31T07:04:44;7.10;99.90
10042;DHT22;5061;49.068;12.058;2023-03-31T07:08:05;7.20;99.90
10042;DHT22;5061;49.068;12.058;2023-03-31T07:11:26;7.20;99.90
10042;DHT22;5061;49.068;12.058;2023-03-31T07:14:47;7.30;99.90
10042;DHT22;5061;49.068;12.058;2023-03-31T07:18:08;7.30;99.90
10042;DHT22;5061;49.068;12.058;2023-03-31T07:21:29;7.30;99.90
10042;DHT22;5061;49.068;12.058;2023-03-31T07:24:50;7.40;99.90
10042;DHT22;5061;49.068;12.058;2023-03-31T07:28:11;7.40;99.90
10042;DHT22;5061;49.068;12.058;2023-03-31T07:31:32;7.40;99.90
10042;DHT22;5061;49.068;12.058;2023-03-31T07:34:54;7.40;99.90
10042;DHT22;5061;49.068;12.058;2023-03-31T07:38:15;7.50;99.90
10042;DHT22;5061;49.068;12.058;2023-03-31T07:41:36;7.50;99.90
10042;DHT22;5061;49.068;12.058;2023-03-31T07:44:57;7.50;99.90
10042;DHT22;5061;49.068;12.058;2023-03-31T07:48:18;7.50;99.90
10042;DHT22;5061;49.068;12.058;2023-03-31T07:51:40;7.50;99.90
10042;DHT22;5061;49.068;12.058;2023-03-31T07:55:02;7.50;99.90
10042;DHT22;5061;49.068;12.058;2023-03-31T07:58:23;7.50;99.90
10042;DHT22;5061;49.068;12.058;2023-03-31T08:01:45;7.50;99.90
10042;DHT22;5061;49.068;12.058;2023-03-31T08:05:09;7.50;99.90
10042;DHT22;5061;49.068;12.058;2023-03-31T08:08:31;7.50;99.90
10042;DHT22;5061;49.068;12.058;2023-03-31T08:11:52;7.50;99.90
10042;DHT22;5061;49.068;12.058;2023-03-31T08:15:13;7.60;99.90
10042;DHT22;5061;49.068;12.058;2023-03-31T08:18:35;7.60;99.90
10042;DHT22;5061;49.068;12.058;2023-03-31T08:21:56;7.60;99.90
10042;DHT22;5061;49.068;12.058;2023-03-31T08:25:17;7.60;99.90
10042;DHT22;5061;49.068;12.058;2023-03-31T08:28:47;7.60;99.90
10042;DHT22;5061;49.068;12.058;2023-03-31T08:32:08;7.60;99.90
10042;DHT22;5061;49.068;12.058;2023-03-31T08:35:29;7.60;99.90
10042;DHT22;5061;49.068;12.058;2023-03-31T08:38:50;7.60;99.90
10042;DHT22;5061;49.068;12.058;2023-03-31T08:42:15;7.60;99.90
10042;DHT22;5061;49.068;12.058;2023-03-31T08:45:41;7.60;99.90
10042;DHT22;5061;49.068;12.058;2023-03-31T08:49:03;7.70;99.90
10042;DHT22;5061;49.068;12.058;2023-03-31T08:52:33;7.70;99.90
10042;DHT22;5061;49.068;12.058;2023-03-31T08:55:57;7.70;99.90
10042;DHT22;5061;49.068;12.058;2023-03-31T08:59:27;7.70;99.90
10042;DHT22;5061;49.068;12.058;2023-03-31T09:03:05;7.70;99.90
10042;DHT22;5061;49.068;12.058;2023-03-31T09:06:42;7.70;99.90
10042;DHT22;5061;49.068;12.058;2023-03-31T09:17:03;7.70;99.90
10042;DHT22;5061;49.068;12.058;2023-03-31T09:20:37;7.70;99.90
10042;DHT22;5061;49.068;12.058;2023-03-31T09:27:27;7.70;99.90
10042;DHT22;5061;49.068;12.058;2023-03-31T09:30:52;7.70;99.90
10042;DHT22;5061;49.068;12.058;2023-03-31T09:34:26;7.70;99.90
10042;DHT22;5061;49.068;12.058;2023-03-31T09:37:48;7.80;99.90
10042;DHT22;5061;49.068;12.058;2023-03-31T09:41:11;7.90;99.90
10042;DHT22;5061;49.068;12.058;2023-03-31T09:44:36;8.00;99.90
10042;DHT22;5061;49.068;12.058;2023-03-31T09:48:13;8.10;99.90
10042;DHT22;5061;49.068;12.058;2023-03-31T09:51:36;8.20;99.90
10042;DHT22;5061;49.068;12.058;2023-03-31T09:55:14;8.20;99.90
10042;DHT22;5061;49.068;12.058;2023-03-31T09:58:45;8.30;99.90
10042;DHT22;5061;49.068;12.058;2023-03-31T10:02:34;8.30;99.90
10042;DHT22;5061;49.068;12.058;2023-03-31T10:05:57;8.30;99.90
10042;DHT22;5061;49.068;12.058;2023-03-31T10:09:20;8.40;99.90
10042;DHT22;5061;49.068;12.058;2023-03-31T10:12:50;8.50;99.90
10042;DHT22;5061;49.068;12.058;2023-03-31T10:16:31;8.60;99.90
10042;DHT22;5061;49.068;12.058;2023-03-31T10:19:56;8.70;99.90
10042;DHT22;5061;49.068;12.058;2023-03-31T10:23:28;9.00;99.90
10042;DHT22;5061;49.068;12.058;2023-03-31T10:26:52;9.30;99.90
10042;DHT22;5061;49.068;12.058;2023-03-31T10:30:34;9.40;99.90
10042;DHT22;5061;49.068;12.058;2023-03-31T10:34:08;9.60;99.90
10042;DHT22;5061;49.068;12.058;2023-03-31T10:37:32;9.70;99.90
10042;DHT22;5061;49.068;12.058;2023-03-31T10:40:56;9.90;99.90
10042;DHT22;5061;49.068;12.058;2023-03-31T10:44:38;10.10;99.90
10042;DHT22;5061;49.068;12.058;2023-03-31T10:48:00;10.20;99.90
10042;DHT22;5061;49.068;12.058;2023-03-31T10:51:28;10.40;99.90
10042;DHT22;5061;49.068;12.058;2023-03-31T10:54:59;10.40;99.90
10042;DHT22;5061;49.068;12.058;2023-03-31T10:58:32;10.60;99.90
10042;DHT22;5061;49.068;12.058;2023-03-31T11:06:07;10.80;99.90
10042;DHT22;5061;49.068;12.058;2023-03-31T11:13:23;11.10;99.90
10042;DHT22;5061;49.068;12.058;2023-03-31T11:16:55;11.20;99.90
10042;DHT22;5061;49.068;12.058;2023-03-31T11:28:32;11.60;99.90
10042;DHT22;5061;49.068;12.058;2023-03-31T11:39:57;12.10;99.90
10042;DHT22;5061;49.068;12.058;2023-03-31T11:46:51;12.30;99.90
10042;DHT22;5061;49.068;12.058;2023-03-31T11:50:26;12.40;99.90
10042;DHT22;5061;49.068;12.058;2023-03-31T11:53:50;12.30;99.90
10042;DHT22;5061;49.068;12.058;2023-03-31T11:57:21;12.20;99.90
10042;DHT22;5061;49.068;12.058;2023-03-31T12:00:50;12.00;99.90
10042;DHT22;5061;49.068;12.058;2023-03-31T12:12:23;11.60;99.90
10042;DHT22;5061;49.068;12.058;2023-03-31T12:16:08;11.60;99.90
10042;DHT22;5061;49.068;12.058;2023-03-31T12:22:59;11.80;99.90
10042;DHT22;5061;49.068;12.058;2023-03-31T12:26:48;12.00;99.90
10042;DHT22;5061;49.068;12.058;2023-03-31T12:33:43;12.30;99.90
10042;DHT22;5061;49.068;12.058;2023-03-31T12:52:06;12.60;99.90
10042;DHT22;5061;49.068;12.058;2023-03-31T12:58:52;12.50;99.90
10042;DHT22;5061;49.068;12.058;2023-03-31T13:09:46;13.30;99.90
10042;DHT22;5061;49.068;12.058;2023-03-31T13:12:41;13.50;99.90
10042;DHT22;5061;49.068;12.058;2023-03-31T13:16:18;13.90;99.90
10042;DHT22;5061;49.068;12.058;2023-03-31T13:19:41;14.10;99.90
10042;DHT22;5061;49.068;12.058;2023-03-31T13:29:52;14.60;99.90
10042;DHT22;5061;49.068;12.058;2023-03-31T13:37:03;14.70;99.90
10042;DHT22;5061;49.068;12.058;2023-03-31T13:41:14;14.70;99.90
10042;DHT22;5061;49.068;12.058;2023-03-31T13:51:58;12.10;99.90
10042;DHT22;5061;49.068;12.058;2023-03-31T13:59:18;10.70;99.90
10042;DHT22;5061;49.068;12.058;2023-03-31T14:06:36;9.90;99.90
10042;DHT22;5061;49.068;12.058;2023-03-31T14:09:59;9.70;99.90
10042;DHT22;5061;49.068;12.058;2023-03-31T14:13:23;9.50;99.90
10042;DHT22;5061;49.068;12.058;2023-03-31T14:16:48;9.40;99.90
10042;DHT22;5061;49.068;12.058;2023-03-31T14:31:34;9.40;99.90
10042;DHT22;5061;49.068;12.058;2023-03-31T14:38:30;9.90;99.90
10042;DHT22;5061;49.068;12.058;2023-03-31T14:41:57;10.20;99.90
10042;DHT22;5061;49.068;12.058;2023-03-31T14:45:21;10.50;99.90
10042;DHT22;5061;49.068;12.058;2023-03-31T14:48:45;10.70;99.90
10042;DHT22;5061;49.068;12.058;2023-03-31T14:52:19;11.00;99.90
10042;DHT22;5061;49.068;12.058;2023-03-31T14:55:40;11.20;99.90
10042;DHT22;5061;49.068;12.058;2023-03-31T14:59:02;11.40;99.90
10042;DHT22;5061;49.068;12.058;2023-03-31T15:02:32;11.40;99.90
10042;DHT22;5061;49.068;12.058;2023-03-31T15:05:57;11.50;99.90
10042;DHT22;5061;49.068;12.058;2023-03-31T15:09:32;11.50;99.90
10042;DHT22;5061;49.068;12.058;2023-03-31T15:12:54;11.60;99.90
10042;DHT22;5061;49.068;12.058;2023-03-31T15:16:40;11.60;99.90
10042;DHT22;5061;49.068;12.058;2023-03-31T15:23:44;11.80;99.90
10042;DHT22;5061;49.068;12.058;2023-03-31T15:27:21;12.10;99.90
10042;DHT22;5061;49.068;12.058;2023-03-31T15:30:44;12.20;99.90
10042;DHT22;5061;49.068;12.058;2023-03-31T15:34:33;12.40;99.90
10042;DHT22;5061;49.068;12.058;2023-03-31T15:37:57;12.50;99.90
10042;DHT22;5061;49.068;12.058;2023-03-31T15:41:18;12.50;99.90
10042;DHT22;5061;49.068;12.058;2023-03-31T15:44:46;12.50;99.90
10042;DHT22;5061;49.068;12.058;2023-03-31T15:48:17;12.40;99.90
10042;DHT22;5061;49.068;12.058;2023-03-31T15:51:39;12.30;99.90
10042;DHT22;5061;49.068;12.058;2023-03-31T15:55:59;12.20;99.90
10042;DHT22;5061;49.068;12.058;2023-03-31T15:59:23;12.10;99.90
10042;DHT22;5061;49.068;12.058;2023-03-31T16:02:44;12.10;99.90
10042;DHT22;5061;49.068;12.058;2023-03-31T16:13:16;11.70;99.90
10042;DHT22;5061;49.068;12.058;2023-03-31T16:16:49;11.60;99.90
10042;DHT22;5061;49.068;12.058;2023-03-31T16:20:22;11.70;99.90
10042;DHT22;5061;49.068;12.058;2023-03-31T16:23:51;11.60;99.90
10042;DHT22;5061;49.068;12.058;2023-03-31T16:27:13;11.70;99.90
10042;DHT22;5061;49.068;12.058;2023-03-31T16:30:39;11.70;99.90
10042;DHT22;5061;49.068;12.058;2023-03-31T16:34:05;11.70;99.90
10042;DHT22;5061;49.068;12.058;2023-03-31T16:37:30;11.60;99.90
10042;DHT22;5061;49.068;12.058;2023-03-31T16:41:00;11.60;99.90
10042;DHT22;5061;49.068;12.058;2023-03-31T16:44:20;11.50;99.90
10042;DHT22;5061;49.068;12.058;2023-03-31T16:47:41;11.30;99.90
10042;DHT22;5061;49.068;12.058;2023-03-31T16:51:02;11.20;99.90
10042;DHT22;5061;49.068;12.058;2023-03-31T16:54:23;11.10;99.90
10042;DHT22;5061;49.068;12.058;2023-03-31T16:57:44;11.00;99.90
10042;DHT22;5061;49.068;12.058;2023-03-31T17:01:06;10.90;99.90
10042;DHT22;5061;49.068;12.058;2023-03-31T17:04:27;10.80;99.90
10042;DHT22;5061;49.068;12.058;2023-03-31T17:07:48;10.80;99.90
10042;DHT22;5061;49.068;12.058;2023-03-31T17:11:11;10.70;99.90
10042;DHT22;5061;49.068;12.058;2023-03-31T17:14:33;10.70;99.90
10042;DHT22;5061;49.068;12.058;2023-03-31T17:17:54;10.70;99.90
10042;DHT22;5061;49.068;12.058;2023-03-31T17:21:16;10.60;99.90
10042;DHT22;5061;49.068;12.058;2023-03-31T17:24:38;10.60;99.90
10042;DHT22;5061;49.068;12.058;2023-03-31T17:27:59;10.50;99.90
10042;DHT22;5061;49.068;12.058;2023-03-31T17:31:20;10.50;99.90
10042;DHT22;5061;49.068;12.058;2023-03-31T17:34:41;10.40;99.90
10042;DHT22;5061;49.068;12.058;2023-03-31T17:38:02;10.40;99.90
10042;DHT22;5061;49.068;12.058;2023-03-31T17:41:23;10.30;99.90
10042;DHT22;5061;49.068;12.058;2023-03-31T17:44:44;10.30;99.90
10042;DHT22;5061;49.068;12.058;2023-03-31T17:48:07;10.20;99.90
10042;DHT22;5061;49.068;12.058;2023-03-31T17:51:29;10.10;99.90
10042;DHT22;5061;49.068;12.058;2023-03-31T17:54:53;10.00;99.90
10042;DHT22;5061;49.068;12.058;2023-03-31T17:58:16;10.00;99.90
10042;DHT22;5061;49.068;12.058;2023-03-31T18:01:37;9.90;99.90
10042;DHT22;5061;49.068;12.058;2023-03-31T18:04:57;9.80;99.90
10042;DHT22;5061;49.068;12.058;2023-03-31T18:08:18;9.80;99.90
10042;DHT22;5061;49.068;12.058;2023-03-31T18:11:39;9.70;99.90
10042;DHT22;5061;49.068;12.058;2023-03-31T18:15:00;9.60;99.90
10042;DHT22;5061;49.068;12.058;2023-03-31T18:18:22;9.60;99.90
10042;DHT22;5061;49.068;12.058;2023-03-31T18:21:45;9.50;99.90
10042;DHT22;5061;49.068;12.058;2023-03-31T18:25:06;9.50;99.90
10042;DHT22;5061;49.068;12.058;2023-03-31T18:28:27;9.40;99.90
10042;DHT22;5061;49.068;12.058;2023-03-31T18:31:48;9.40;99.90
10042;DHT22;5061;49.068;12.058;2023-03-31T18:35:09;9.30;99.90
10042;DHT22;5061;49.068;12.058;2023-03-31T18:38:30;9.30;99.90
10042;DHT22;5061;49.068;12.058;2023-03-31T18:41:51;9.30;99.90
10042;DHT22;5061;49.068;12.058;2023-03-31T18:45:13;9.30;99.90
10042;DHT22;5061;49.068;12.058;2023-03-31T18:48:34;9.30;99.90
10042;DHT22;5061;49.068;12.058;2023-03-31T18:51:55;9.30;99.90
10042;DHT22;5061;49.068;12.058;2023-03-31T18:55:17;9.20;99.90
10042;DHT22;5061;49.068;12.058;2023-03-31T18:58:37;9.30;99.90
10042;DHT22;5061;49.068;12.058;2023-03-31T19:01:58;9.20;99.90
10042;DHT22;5061;49.068;12.058;2023-03-31T19:05:19;9.20;99.90
10042;DHT22;5061;49.068;12.058;2023-03-31T19:08:39;9.20;99.90
10042;DHT22;5061;49.068;12.058;2023-03-31T19:12:00;9.20;99.90
10042;DHT22;5061;49.068;12.058;2023-03-31T19:15:21;9.30;99.90
10042;DHT22;5061;49.068;12.058;2023-03-31T19:18:42;9.30;99.90
10042;DHT22;5061;49.068;12.058;2023-03-31T19:22:03;9.30;99.90
10042;DHT22;5061;49.068;12.058;2023-03-31T19:25:24;9.30;99.90
10042;DHT22;5061;49.068;12.058;2023-03-31T19:28:45;9.20;99.90
10042;DHT22;5061;49.068;12.058;2023-03-31T19:32:07;9.20;99.90
10042;DHT22;5061;49.068;12.058;2023-03-31T19:35:28;9.20;99.90
10042;DHT22;5061;49.068;12.058;2023-03-31T19:38:49;9.20;99.90
10042;DHT22;5061;49.068;12.058;2023-03-31T19:42:10;9.10;99.90
10042;DHT22;5061;49.068;12.058;2023-03-31T19:45:31;9.10;99.90
10042;DHT22;5061;49.068;12.058;2023-03-31T19:48:58;9.10;99.90
10042;DHT22;5061;49.068;12.058;2023-03-31T19:52:19;9.10;99.90
10042;DHT22;5061;49.068;12.058;2023-03-31T19:55:39;9.00;99.90
10042;DHT22;5061;49.068;12.058;2023-03-31T19:59:01;9.00;99.90
10042;DHT22;5061;49.068;12.058;2023-03-31T20:02:22;9.00;99.90
10042;DHT22;5061;49.068;12.058;2023-03-31T20:05:43;9.00;99.90
10042;DHT22;5061;49.068;12.058;2023-03-31T20:09:04;9.00;99.90
10042;DHT22;5061;49.068;12.058;2023-03-31T20:12:26;9.00;99.90
10042;DHT22;5061;49.068;12.058;2023-03-31T20:15:46;8.90;99.90
10042;DHT22;5061;49.068;12.058;2023-03-31T20:19:09;8.90;99.90
10042;DHT22;5061;49.068;12.058;2023-03-31T20:22:34;8.90;99.90
10042;DHT22;5061;49.068;12.058;2023-03-31T20:25:55;8.90;99.90
10042;DHT22;5061;49.068;12.058;2023-03-31T20:29:16;8.80;99.90
10042;DHT22;5061;49.068;12.058;2023-03-31T20:32:40;8.80;99.90
10042;DHT22;5061;49.068;12.058;2023-03-31T20:36:10;8.80;99.90
10042;DHT22;5061;49.068;12.058;2023-03-31T20:39:33;8.70;99.90
10042;DHT22;5061;49.068;12.058;2023-03-31T20:42:54;8.60;99.90
10042;DHT22;5061;49.068;12.058;2023-03-31T20:46:16;8.60;99.90
10042;DHT22;5061;49.068;12.058;2023-03-31T20:49:37;8.50;99.90
10042;DHT22;5061;49.068;12.058;2023-03-31T20:52:58;8.50;99.90
10042;DHT22;5061;49.068;12.058;2023-03-31T20:56:22;8.40;99.90
10042;DHT22;5061;49.068;12.058;2023-03-31T20:59:43;8.30;99.90
10042;DHT22;5061;49.068;12.058;2023-03-31T21:03:05;8.20;99.90
10042;DHT22;5061;49.068;12.058;2023-03-31T21:06:27;8.20;99.90
10042;DHT22;5061;49.068;12.058;2023-03-31T21:09:48;8.10;99.90
10042;DHT22;5061;49.068;12.058;2023-03-31T21:13:18;8.00;99.90
10042;DHT22;5061;49.068;12.058;2023-03-31T21:16:39;8.00;99.90
10042;DHT22;5061;49.068;12.058;2023-03-31T21:20:04;8.00;99.90
10042;DHT22;5061;49.068;12.058;2023-03-31T21:23:26;7.90;99.90
10042;DHT22;5061;49.068;12.058;2023-03-31T21:26:47;7.90;99.90
10042;DHT22;5061;49.068;12.058;2023-03-31T21:30:09;7.90;99.90
10042;DHT22;5061;49.068;12.058;2023-03-31T21:33:31;7.90;99.90
10042;DHT22;5061;49.068;12.058;2023-03-31T21:36:52;7.90;99.90
10042;DHT22;5061;49.068;12.058;2023-03-31T21:40:13;7.90;99.90
10042;DHT22;5061;49.068;12.058;2023-03-31T21:43:36;7.90;99.90
10042;DHT22;5061;49.068;12.058;2023-03-31T21:46:57;7.90;99.90
10042;DHT22;5061;49.068;12.058;2023-03-31T21:50:18;7.90;99.90
10042;DHT22;5061;49.068;12.058;2023-03-31T21:53:39;7.90;99.90
10042;DHT22;5061;49.068;12.058;2023-03-31T21:57:00;7.90;99.90
10042;DHT22;5061;49.068;12.058;2023-03-31T22:00:21;7.90;99.90
10042;DHT22;5061;49.068;12.058;2023-03-31T22:03:45;7.90;99.90
10042;DHT22;5061;49.068;12.058;2023-03-31T22:07:08;7.90;99.90
10042;DHT22;5061;49.068;12.058;2023-03-31T22:10:32;7.90;99.90
10042;DHT22;5061;49.068;12.058;2023-03-31T22:13:53;7.90;99.90
10042;DHT22;5061;49.068;12.058;2023-03-31T22:17:17;7.80;99.90
10042;DHT22;5061;49.068;12.058;2023-03-31T22:20:43;7.80;99.90
10042;DHT22;5061;49.068;12.058;2023-03-31T22:24:07;7.80;99.90
10042;DHT22;5061;49.068;12.058;2023-03-31T22:27:29;7.80;99.90
10042;DHT22;5061;49.068;12.058;2023-03-31T22:30:50;7.70;99.90
10042;DHT22;5061;49.068;12.058;2023-03-31T22:34:12;7.80;99.90
10042;DHT22;5061;49.068;12.058;2023-03-31T22:37:39;7.70;99.90
10042;DHT22;5061;49.068;12.058;2023-03-31T22:41:00;7.70;99.90
10042;DHT22;5061;49.068;12.058;2023-03-31T22:44:30;7.60;99.90
10042;DHT22;5061;49.068;12.058;2023-03-31T22:48:15;7.60;99.90
10042;DHT22;5061;49.068;12.058;2023-03-31T22:51:58;7.60;99.90
10042;DHT22;5061;49.068;12.058;2023-03-31T22:55:41;7.50;99.90
10042;DHT22;5061;49.068;12.058;2023-03-31T22:59:09;7.50;99.90
10042;DHT22;5061;49.068;12.058;2023-03-31T23:02:30;7.50;99.90
10042;DHT22;5061;49.068;12.058;2023-03-31T23:05:52;7.50;99.90
10042;DHT22;5061;49.068;12.058;2023-03-31T23:09:13;7.50;99.90
10042;DHT22;5061;49.068;12.058;2023-03-31T23:12:35;7.40;99.90
10042;DHT22;5061;49.068;12.058;2023-03-31T23:16:03;7.50;99.90
10042;DHT22;5061;49.068;12.058;2023-03-31T23:19:24;7.50;99.90
10042;DHT22;5061;49.068;12.058;2023-03-31T23:22:51;7.50;99.90
10042;DHT22;5061;49.068;12.058;2023-03-31T23:26:13;7.50;99.90
10042;DHT22;5061;49.068;12.058;2023-03-31T23:29:35;7.50;99.90
10042;DHT22;5061;49.068;12.058;2023-03-31T23:32:56;7.50;99.90
10042;DHT22;5061;49.068;12.058;2023-03-31T23:36:18;7.50;99.90
10042;DHT22;5061;49.068;12.058;2023-03-31T23:39:42;7.50;99.90
10042;DHT22;5061;49.068;12.058;2023-03-31T23:43:03;7.40;99.90
10042;DHT22;5061;49.068;12.058;2023-03-31T23:46:24;7.50;99.90
10042;DHT22;5061;49.068;12.058;2023-03-31T23:49:45;7.40;99.90
10042;DHT22;5061;49.068;12.058;2023-03-31T23:53:06;7.40;99.90
10042;DHT22;5061;49.068;12.058;2023-03-31T23:56:30;7.40;99.90
10042;DHT22;5061;49.068;12.058;2023-03-31T23:59:51;7.40;99.90
